METAR Data
IDs: Format: Raw Decoded Include TAF

Data at: 1541 UTC 21 Sep 2018

KACY 211517Z 19008KT 10SM BKN023 24/18 A3023 RMK AO2 T02390178
KACY 211454Z 15009KT 10SM SCT022 24/18 A3023 RMK AO2 SLP235 T02440183 58010
KACY 211421Z 15010KT 10SM SCT023 OVC049 23/18 A3024 RMK AO2 T02330183
KACY 211354Z 16006KT 10SM BKN022 OVC050 23/18 A3025 RMK AO2 SLP243 T02280183
KACY 211347Z 15006KT 10SM BKN021 BKN050 23/18 A3025 RMK AO2 T02280178
KACY 211254Z 16004KT 10SM OVC055 22/19 A3026 RMK AO2 SLP246 T02170189
KACY 211209Z 00000KT 10SM FEW028 BKN043 BKN060 19/18 A3027 RMK AO2 T01940178
KACY 211201Z 00000KT 10SM FEW028 SCT043 SCT060 19/18 A3026 RMK AO2 T01890178
KACY 211154Z 00000KT 10SM FEW022 BKN027 19/18 A3026 RMK AO2 SLP246 T01890178 10194 20161 50008
KACY 211126Z 00000KT 10SM SCT025 BKN065 17/17 A3026 RMK AO2 T01720167
KACY 211110Z 00000KT 10SM BKN024 17/17 A3026 RMK AO2 T01720167
KACY 211054Z 33005KT 10SM SCT023 17/17 A3026 RMK AO2 SLP247 T01720167
KACY 210954Z 11003KT 10SM CLR 17/16 A3024 RMK AO2 SLP240 T01670156
KACY 210854Z 00000KT 10SM FEW025 SCT060 17/16 A3024 RMK AO2 SLP238 T01720161 55000
KACY 210754Z 31004KT 10SM FEW023 SCT047 SCT060 18/17 A3023 RMK AO2 SLP237 T01780167
KACY 210654Z 05003KT 10SM BKN055 18/17 A3023 RMK AO2 SLP237 T01830167
KACY 210554Z 00000KT 10SM OVC049 18/17 A3024 RMK AO2 SLP239 T01780172 10189 20167 58006
KACY 210454Z 00000KT 10SM SCT022 SCT049 17/16 A3025 RMK AO2 SLP243 T01670161 402330167
KACY 210354Z 32004KT 10SM CLR 17/16 A3025 RMK AO2 SLP244 T01670156
KACY 210254Z 09003KT 10SM CLR 18/17 A3025 RMK AO2 SLP243 T01830167 51009
KACY 210154Z 10005KT 10SM CLR 18/16 A3024 RMK AO2 SLP238 T01780161
KACY 210054Z 10005KT 10SM CLR 18/17 A3024 RMK AO2 SLP239 T01830167
KACY 202354Z 11006KT 10SM CLR 19/17 A3022 RMK AO2 SLP234 T01890167 10233 20189 50002
KACY 202254Z 12008KT 10SM OVC033 20/17 A3023 RMK AO2 SLP235 T02000167
KACY 202154Z 09010KT 10SM OVC031 21/17 A3022 RMK AO2 SLP234 T02110167
KACY 202054Z 09008KT 10SM OVC033 22/17 A3022 RMK AO2 SLP231 T02220172 55002
KACY 202009Z 08008KT 10SM SCT025 OVC032 23/17 A3021 RMK AO2 T02280172
KACY 201954Z 08009KT 10SM BKN025 OVC032 23/17 A3021 RMK AO2 SLP230 T02280172
KACY 201940Z 11008KT 10SM BKN027 OVC032 23/17 A3021 RMK AO2 T02280172
KACY 201854Z 11008KT 10SM OVC031 23/17 A3021 RMK AO2 SLP230 T02330172
KACY 201841Z 08008KT 10SM OVC031 23/17 A3021 RMK AO2 T02330172
KACY 201831Z 08006KT 10SM BKN029 OVC034 23/17 A3021 RMK AO2 T02330167
KACY 201754Z 06007KT 10SM OVC031 23/17 A3022 RMK AO2 SLP233 T02330172 10233 20206 58001
KACY 201654Z 08006KT 10SM OVC029 23/17 A3023 RMK AO2 SLP236 T02280167
KACY 201554Z 06008KT 10SM OVC026 22/17 A3023 RMK AO2 SLP237 T02220172
KACY 201454Z 08007KT 10SM OVC025 22/17 A3023 RMK AO2 SLP234 T02170167 53018
KACY 201354Z 08006KT 10SM OVC021 22/17 A3021 RMK AO2 SLP229 T02220172
KACY 201254Z 10006KT 10SM OVC025 21/18 A3018 RMK AO2 SLP219 T02110178
KACY 201154Z 08003KT 10SM OVC024 21/18 A3017 RMK AO2 SLP216 T02060178 10206 20200 53027
KACY 201054Z 07005KT 10SM OVC024 21/18 A3014 RMK AO2 SLP206 T02060183
KACY 200954Z 07004KT 10SM OVC020 20/18 A3011 RMK AO2 SLP197 T02000183
KACY 200854Z 09006KT 10SM OVC018 21/18 A3009 RMK AO2 SLP189 T02060183 53006
KACY 200754Z 08007KT 10SM OVC016 21/19 A3008 RMK AO2 SLP184 T02060189
KACY 200725Z 08005KT 10SM BKN014 OVC022 21/19 A3007 RMK AO2 T02060194
KACY 200654Z 08003KT 10SM BKN021 OVC026 21/20 A3007 RMK AO2 SLP182 T02060200
KACY 200601Z 08006KT 6SM BR OVC016 21/19 A3007 RMK AO2 T02110194
KACY 200554Z 07008KT 9SM BKN014 OVC019 22/19 A3007 RMK AO2 SLP183 T02170194 10222 20217 53012
KACY 200454Z 09005KT 10SM OVC019 22/20 A3006 RMK AO2 SLP177 T02170200 402780189
KACY 200354Z 09005KT 10SM OVC015 22/20 A3005 RMK AO2 SLP175 T02220200